Terminal Aerodrome Forecast
Issued by NWS St Louis, MO

Home | Current Version | Previous Version | Text Only | Print | Product List | Glossary On
Versions: 1 2 3 4 5 6 7 8 9 10 11 12 13 14 15 16 17 18 19 20 21
000
FTUS43 KLSX 042325
TAFCOU
TAF
KCOU 042325Z 0500/0524 12005KT P6SM SCT070 OVC250
     FM050500 12005KT 6SM SHRA OVC035
     FM051400 12006KT P6SM BKN030
     FM051900 11007KT 6SM SHRA VCTS OVC030CB=

USA.gov is the U.S. government's official web portal to all federal, state and local government web resources and services.